Belorc'h — FAE5391 — position and weather

sailwx.info

Track history (hours):
 
Tides and Currents Weather Stations Pressure Air Temp Water Temp Dewpoint Dewpoint Depression Visibility Wind Speed Wind Dir Waves Ship Positions

Belorc'h

Last reported at 2017-Sep-03 19:37 UTC. Time now 2017-Sep-22 20:45 UTC.
Position N 36°27' W 009°46'.
Warning: this ship's position is 19 days out of date.

Length 11 m.

Type: Sailing vessel. MMSI: 227486840.

Date/timePositionNaut miles runAvg speedWind from/ knotsBaromVisibWave heightAir tempDewpointWater temp
2017-Sep-03 19:37N 36°27' W 009°46'1 6.3
2017-Sep-03 19:28N 36°27' W 009°45'3 4.9
2017-Sep-03 18:49N 36°29' W 009°42'3 7.4
2017-Sep-03 18:24N 36°31' W 009°39'3 7.3
2017-Sep-03 18:00N 36°33' W 009°36'10 7.4
2017-Sep-03 16:38N 36°38' W 009°25'3 7.2
2017-Sep-03 16:17N 36°39' W 009°22'2 6.5
2017-Sep-03 15:56N 36°40' W 009°20'3 7.2
2017-Sep-03 15:30N 36°42' W 009°16'4 7.1
2017-Sep-03 15:00N 36°44' W 009°13'12 7.0
2017-Sep-03 13:18N 36°51' W 009°00'3 7.6
2017-Sep-03 12:58N 36°52' W 008°58'9 5.8
2017-Sep-03 11:25N 36°57' W 008°49'3 5.2
2017-Sep-03 10:53N 36°59' W 008°46'2 5.0
2017-Sep-03 10:30N 37°00' W 008°44'12 0.5
2017-Sep-02 10:43N 37°07' W 008°31'0 0.0
2017-Sep-01 15:23N 37°07' W 008°31'1 3.6
2017-Sep-01 14:58N 37°06' W 008°33'3 5.7
2017-Sep-01 14:24N 37°07' W 008°37'1 0.0
2017-Aug-31 14:16N 37°07' W 008°38'2 0.1
2017-Aug-30 09:16N 37°05' W 008°40'0 0.2
2017-Aug-30 08:54N 37°05' W 008°40'1 3.6
2017-Aug-30 08:29N 37°06' W 008°38'2 3.1
2017-Aug-30 07:58N 37°07' W 008°37'0 0.0
2017-Aug-28 12:14N 37°08' W 008°37'0 0.0
2017-Aug-28 11:56N 37°08' W 008°37'  
Track history (hours):
 
Tides and Currents Weather Stations Pressure Air Temp Water Temp Dewpoint Dewpoint Depression Visibility Wind Speed Wind Dir Waves Ship Positions

Belorc'h

Last reported at 2017-Sep-03 19:37 UTC. Time now 2017-Sep-22 20:45 UTC.
Position N 36°27' W 009°46'.
Warning: this ship's position is 19 days out of date.

Length 11 m.

Type: Sailing vessel. MMSI: 227486840.

Date/timePositionNaut miles runAvg speedWind from/ knotsBaromVisibWave heightAir tempDewpointWater temp
2017-Sep-03 19:37N 36°27' W 009°46'1 6.3
2017-Sep-03 19:28N 36°27' W 009°45'3 4.9
2017-Sep-03 18:49N 36°29' W 009°42'3 7.4
2017-Sep-03 18:24N 36°31' W 009°39'3 7.3
2017-Sep-03 18:00N 36°33' W 009°36'10 7.4
2017-Sep-03 16:38N 36°38' W 009°25'3 7.2
2017-Sep-03 16:17N 36°39' W 009°22'2 6.5
2017-Sep-03 15:56N 36°40' W 009°20'3 7.2
2017-Sep-03 15:30N 36°42' W 009°16'4 7.1
2017-Sep-03 15:00N 36°44' W 009°13'12 7.0
2017-Sep-03 13:18N 36°51' W 009°00'3 7.6
2017-Sep-03 12:58N 36°52' W 008°58'9 5.8
2017-Sep-03 11:25N 36°57' W 008°49'3 5.2
2017-Sep-03 10:53N 36°59' W 008°46'2 5.0
2017-Sep-03 10:30N 37°00' W 008°44'12 0.5
2017-Sep-02 10:43N 37°07' W 008°31'0 0.0
2017-Sep-01 15:23N 37°07' W 008°31'1 3.6
2017-Sep-01 14:58N 37°06' W 008°33'3 5.7
2017-Sep-01 14:24N 37°07' W 008°37'1 0.0
2017-Aug-31 14:16N 37°07' W 008°38'2 0.1
2017-Aug-30 09:16N 37°05' W 008°40'0 0.2
2017-Aug-30 08:54N 37°05' W 008°40'1 3.6
2017-Aug-30 08:29N 37°06' W 008°38'2 3.1
2017-Aug-30 07:58N 37°07' W 008°37'0 0.0
2017-Aug-28 12:14N 37°08' W 008°37'0 0.0
2017-Aug-28 11:56N 37°08' W 008°37'  

Dump ship's entire track history